sensor_id;sensor_type;location;lat;lon;timestamp;pressure;altitude;pressure_sealevel;temperature;humidity
69187;BME280;56301;56.864;60.554;2023-04-10T00:00:27;98490.69;;;24.85;32.60
69187;BME280;56301;56.864;60.554;2023-04-10T00:02:50;98491.53;;;24.86;32.58
69187;BME280;56301;56.864;60.554;2023-04-10T00:05:12;98490.91;;;24.84;32.31
69187;BME280;56301;56.864;60.554;2023-04-10T00:07:34;98491.91;;;24.83;32.19
69187;BME280;56301;56.864;60.554;2023-04-10T00:09:57;98491.53;;;24.86;31.53
69187;BME280;56301;56.864;60.554;2023-04-10T00:12:19;98499.63;;;24.86;32.16
69187;BME280;56301;56.864;60.554;2023-04-10T00:14:42;98493.19;;;24.87;32.25
69187;BME280;56301;56.864;60.554;2023-04-10T00:17:04;98487.78;;;24.87;32.07
69187;BME280;56301;56.864;60.554;2023-04-10T00:19:27;98488.81;;;24.86;32.53
69187;BME280;56301;56.864;60.554;2023-04-10T00:21:49;98487.78;;;24.87;32.00
69187;BME280;56301;56.864;60.554;2023-04-10T00:24:12;98484.25;;;24.86;32.50
69187;BME280;56301;56.864;60.554;2023-04-10T00:26:34;98480.69;;;24.86;31.91
69187;BME280;56301;56.864;60.554;2023-04-10T00:28:56;98476.13;;;24.86;31.63
69187;BME280;56301;56.864;60.554;2023-04-10T00:31:19;98480.69;;;24.86;31.99
69187;BME280;56301;56.864;60.554;2023-04-10T00:33:42;98474.44;;;24.85;32.27
69187;BME280;56301;56.864;60.554;2023-04-10T00:36:04;98472.56;;;24.86;31.99
69187;BME280;56301;56.864;60.554;2023-04-10T00:38:27;98469.25;;;24.84;32.01
69187;BME280;56301;56.864;60.554;2023-04-10T00:40:49;98473.78;;;24.83;32.33
69187;BME280;56301;56.864;60.554;2023-04-10T00:43:12;98471.09;;;24.83;32.09
69187;BME280;56301;56.864;60.554;2023-04-10T00:45:34;98464.84;;;24.83;31.54
69187;BME280;56301;56.864;60.554;2023-04-10T00:47:57;98472.78;;;24.84;31.84
69187;BME280;56301;56.864;60.554;2023-04-10T00:50:20;98466.53;;;24.84;31.67
69187;BME280;56301;56.864;60.554;2023-04-10T00:52:42;98461.56;;;24.87;31.46
69187;BME280;56301;56.864;60.554;2023-04-10T00:55:05;98464.00;;;24.82;31.90
69187;BME280;56301;56.864;60.554;2023-04-10T00:57:28;98463.16;;;24.82;33.02
69187;BME280;56301;56.864;60.554;2023-04-10T00:59:51;98458.81;;;24.81;32.09
69187;BME280;56301;56.864;60.554;2023-04-10T01:02:14;98462.50;;;24.80;32.50
69187;BME280;56301;56.864;60.554;2023-04-10T01:04:37;98456.47;;;24.78;32.93
69187;BME280;56301;56.864;60.554;2023-04-10T01:09:37;98454.81;;;24.77;32.45
69187;BME280;56301;56.864;60.554;2023-04-10T01:12:26;98460.38;;;24.75;31.92
69187;BME280;56301;56.864;60.554;2023-04-10T01:14:48;98462.47;;;24.73;31.13
69187;BME280;56301;56.864;60.554;2023-04-10T01:22:17;98458.91;;;24.72;32.16
69187;BME280;56301;56.864;60.554;2023-04-10T01:24:54;98458.91;;;24.72;32.29
69187;BME280;56301;56.864;60.554;2023-04-10T01:30:04;98455.56;;;24.70;32.51
69187;BME280;56301;56.864;60.554;2023-04-10T01:32:27;98449.31;;;24.70;31.98
69187;BME280;56301;56.864;60.554;2023-04-10T01:34:53;98454.72;;;24.70;31.82
69187;BME280;56301;56.864;60.554;2023-04-10T01:37:20;98448.47;;;24.69;32.52
69187;BME280;56301;56.864;60.554;2023-04-10T01:39:43;98450.16;;;24.70;32.01
69187;BME280;56301;56.864;60.554;2023-04-10T01:42:11;98443.06;;;24.69;32.87
69187;BME280;56301;56.864;60.554;2023-04-10T01:44:39;98446.78;;;24.68;31.98
69187;BME280;56301;56.864;60.554;2023-04-10T01:47:04;98452.19;;;24.68;32.57
69187;BME280;56301;56.864;60.554;2023-04-10T01:49:28;98440.53;;;24.68;32.55
69187;BME280;56301;56.864;60.554;2023-04-10T01:51:57;98438.03;;;24.66;32.93
69187;BME280;56301;56.864;60.554;2023-04-10T01:54:24;98439.69;;;24.67;32.76
69187;BME280;56301;56.864;60.554;2023-04-10T01:56:47;98438.03;;;24.66;32.12
69187;BME280;56301;56.864;60.554;2023-04-10T01:59:12;98439.03;;;24.65;33.03
69187;BME280;56301;56.864;60.554;2023-04-10T02:01:34;98428.88;;;24.67;30.48
69187;BME280;56301;56.864;60.554;2023-04-10T02:03:58;98428.88;;;24.67;31.63
69187;BME280;56301;56.864;60.554;2023-04-10T02:08:52;98429.25;;;24.64;31.10
69187;BME280;56301;56.864;60.554;2023-04-10T02:13:38;98429.25;;;24.64;30.77
69187;BME280;56301;56.864;60.554;2023-04-10T02:16:02;98429.25;;;24.64;32.08
69187;BME280;56301;56.864;60.554;2023-04-10T02:18:26;98423.47;;;24.67;32.38
69187;BME280;56301;56.864;60.554;2023-04-10T02:20:49;98422.44;;;24.68;32.46
69187;BME280;56301;56.864;60.554;2023-04-10T02:23:13;98424.97;;;24.70;32.64
69187;BME280;56301;56.864;60.554;2023-04-10T02:25:36;98426.44;;;24.72;32.26
69187;BME280;56301;56.864;60.554;2023-04-10T02:28:05;98422.72;;;24.73;32.00
69187;BME280;56301;56.864;60.554;2023-04-10T02:30:27;98420.00;;;24.73;32.54
69187;BME280;56301;56.864;60.554;2023-04-10T02:32:50;98419.81;;;24.75;32.53
69187;BME280;56301;56.864;60.554;2023-04-10T02:35:14;98415.22;;;24.76;32.84
69187;BME280;56301;56.864;60.554;2023-04-10T02:37:36;98409.81;;;24.76;32.77
69187;BME280;56301;56.864;60.554;2023-04-10T02:39:59;98403.41;;;24.77;32.74
69187;BME280;56301;56.864;60.554;2023-04-10T02:42:23;98406.72;;;24.79;32.50
69187;BME280;56301;56.864;60.554;2023-04-10T02:44:47;98403.19;;;24.78;32.69
69187;BME280;56301;56.864;60.554;2023-04-10T02:47:10;98398.63;;;24.79;33.22
69187;BME280;56301;56.864;60.554;2023-04-10T02:49:35;98394.88;;;24.80;33.22
69187;BME280;56301;56.864;60.554;2023-04-10T02:52:05;98396.56;;;24.81;32.39
69187;BME280;56301;56.864;60.554;2023-04-10T02:54:28;98388.06;;;24.84;31.26
69187;BME280;56301;56.864;60.554;2023-04-10T02:56:50;98391.41;;;24.86;31.92
69187;BME280;56301;56.864;60.554;2023-04-10T02:59:13;98395.78;;;24.87;32.38
69187;BME280;56301;56.864;60.554;2023-04-10T03:01:35;98386.81;;;24.86;32.25
69187;BME280;56301;56.864;60.554;2023-04-10T03:03:58;98393.91;;;24.87;32.96
69187;BME280;56301;56.864;60.554;2023-04-10T03:06:24;98394.75;;;24.88;32.49
69187;BME280;56301;56.864;60.554;2023-04-10T03:08:46;98386.63;;;24.88;32.33
69187;BME280;56301;56.864;60.554;2023-04-10T03:11:09;98381.22;;;24.88;33.05
69187;BME280;56301;56.864;60.554;2023-04-10T03:13:31;98385.59;;;24.89;32.26
69187;BME280;56301;56.864;60.554;2023-04-10T03:15:54;98377.47;;;24.89;32.42
69187;BME280;56301;56.864;60.554;2023-04-10T03:18:16;98373.75;;;24.90;32.20
69187;BME280;56301;56.864;60.554;2023-04-10T03:20:41;98371.03;;;24.90;32.85
69187;BME280;56301;56.864;60.554;2023-04-10T03:23:07;98366.44;;;24.90;32.26
69187;BME280;56301;56.864;60.554;2023-04-10T03:25:29;98362.72;;;24.91;32.40
69187;BME280;56301;56.864;60.554;2023-04-10T03:27:52;98360.84;;;24.92;32.19
69187;BME280;56301;56.864;60.554;2023-04-10T03:30:15;98357.31;;;24.91;32.65
69187;BME280;56301;56.864;60.554;2023-04-10T03:32:38;98359.81;;;24.93;33.10
69187;BME280;56301;56.864;60.554;2023-04-10T03:35:00;98358.78;;;24.94;32.16
69187;BME280;56301;56.864;60.554;2023-04-10T03:37:23;98355.06;;;24.95;32.35
69187;BME280;56301;56.864;60.554;2023-04-10T03:39:45;98349.66;;;24.95;32.60
69187;BME280;56301;56.864;60.554;2023-04-10T03:42:09;98352.16;;;24.96;32.30
69187;BME280;56301;56.864;60.554;2023-04-10T03:44:32;98345.06;;;24.95;32.63
69187;BME280;56301;56.864;60.554;2023-04-10T03:46:55;98342.16;;;24.97;31.76
69187;BME280;56301;56.864;60.554;2023-04-10T03:49:17;98347.94;;;24.94;32.50
69187;BME280;56301;56.864;60.554;2023-04-10T03:51:40;98349.81;;;24.93;31.71
69187;BME280;56301;56.864;60.554;2023-04-10T03:54:02;98348.78;;;24.94;31.95
69187;BME280;56301;56.864;60.554;2023-04-10T03:56:26;98350.22;;;24.90;31.07
69187;BME280;56301;56.864;60.554;2023-04-10T03:58:48;98351.47;;;24.88;31.21
69187;BME280;56301;56.864;60.554;2023-04-10T04:01:11;98340.38;;;24.83;30.61
69187;BME280;56301;56.864;60.554;2023-04-10T04:03:50;98347.41;;;24.77;30.49
69187;BME280;56301;56.864;60.554;2023-04-10T04:06:31;98345.91;;;24.74;30.34
69187;BME280;56301;56.864;60.554;2023-04-10T04:09:11;98356.88;;;24.66;29.09
69187;BME280;56301;56.864;60.554;2023-04-10T04:11:47;98349.78;;;24.65;29.26
69187;BME280;56301;56.864;60.554;2023-04-10T04:14:28;98353.50;;;24.64;29.66
69187;BME280;56301;56.864;60.554;2023-04-10T04:17:09;98355.38;;;24.64;28.93
69187;BME280;56301;56.864;60.554;2023-04-10T04:19:58;98348.94;;;24.65;29.57
69187;BME280;56301;56.864;60.554;2023-04-10T04:22:40;98338.56;;;24.68;28.98
69187;BME280;56301;56.864;60.554;2023-04-10T04:25:35;98329.91;;;24.73;29.46
69187;BME280;56301;56.864;60.554;2023-04-10T04:28:04;98332.19;;;24.76;29.40
69187;BME280;56301;56.864;60.554;2023-04-10T04:30:31;98325.38;;;24.80;29.18
69187;BME280;56301;56.864;60.554;2023-04-10T04:33:11;98321.88;;;24.86;29.80
69187;BME280;56301;56.864;60.554;2023-04-10T04:35:45;98319.63;;;24.90;28.77
69187;BME280;56301;56.864;60.554;2023-04-10T04:38:15;98319.22;;;24.93;28.95
69187;BME280;56301;56.864;60.554;2023-04-10T04:40:55;98314.25;;;24.96;28.48
69187;BME280;56301;56.864;60.554;2023-04-10T04:43:40;98317.41;;;25.00;27.87
69187;BME280;56301;56.864;60.554;2023-04-10T04:46:14;98308.50;;;25.06;27.90
69187;BME280;56301;56.864;60.554;2023-04-10T04:49:05;98296.91;;;25.12;28.57
69187;BME280;56301;56.864;60.554;2023-04-10T04:51:43;98306.94;;;25.18;29.03
69187;BME280;56301;56.864;60.554;2023-04-10T04:54:28;98305.13;;;25.26;29.08
69187;BME280;56301;56.864;60.554;2023-04-10T04:57:08;98310.78;;;25.31;28.72
69187;BME280;56301;56.864;60.554;2023-04-10T04:59:48;98307.50;;;25.35;28.13
69187;BME280;56301;56.864;60.554;2023-04-10T05:02:18;98301.50;;;25.12;27.51
69187;BME280;56301;56.864;60.554;2023-04-10T05:05:02;98312.31;;;24.62;28.31
69187;BME280;56301;56.864;60.554;2023-04-10T05:07:53;98308.75;;;24.25;29.34
69187;BME280;56301;56.864;60.554;2023-04-10T05:10:28;98304.25;;;24.33;29.65
69187;BME280;56301;56.864;60.554;2023-04-10T05:13:17;98299.41;;;24.64;29.22
69187;BME280;56301;56.864;60.554;2023-04-10T05:15:52;98295.53;;;24.95;29.20
69187;BME280;56301;56.864;60.554;2023-04-10T05:18:40;98293.19;;;25.13;28.75
69187;BME280;56301;56.864;60.554;2023-04-10T05:21:26;98292.47;;;25.33;27.93
69187;BME280;56301;56.864;60.554;2023-04-10T05:24:16;98301.69;;;25.45;27.23
69187;BME280;56301;56.864;60.554;2023-04-10T05:27:05;98285.09;;;25.55;27.62
69187;BME280;56301;56.864;60.554;2023-04-10T05:29:49;98284.13;;;24.78;28.66
69187;BME280;56301;56.864;60.554;2023-04-10T05:32:33;98270.91;;;24.25;29.39
69187;BME280;56301;56.864;60.554;2023-04-10T05:35:07;98278.16;;;24.18;29.46
69187;BME280;56301;56.864;60.554;2023-04-10T05:37:39;98293.44;;;24.33;29.15
69187;BME280;56301;56.864;60.554;2023-04-10T05:40:31;98297.59;;;24.71;29.29
69187;BME280;56301;56.864;60.554;2023-04-10T05:43:11;98292.34;;;25.13;28.81
69187;BME280;56301;56.864;60.554;2023-04-10T05:45:53;98282.91;;;25.37;28.31
69187;BME280;56301;56.864;60.554;2023-04-10T05:48:44;98292.59;;;25.59;27.77
69187;BME280;56301;56.864;60.554;2023-04-10T05:51:33;98294.34;;;25.74;26.75
69187;BME280;56301;56.864;60.554;2023-04-10T05:54:17;98297.69;;;25.06;28.16
69187;BME280;56301;56.864;60.554;2023-04-10T05:56:59;98293.88;;;24.30;29.29
69187;BME280;56301;56.864;60.554;2023-04-10T05:59:40;98297.44;;;24.15;29.25
69187;BME280;56301;56.864;60.554;2023-04-10T06:02:17;98284.94;;;23.78;30.13
69187;BME280;56301;56.864;60.554;2023-04-10T06:04:40;98277.03;;;23.76;30.53
69187;BME280;56301;56.864;60.554;2023-04-10T06:07:03;98296.25;;;24.03;30.33
69187;BME280;56301;56.864;60.554;2023-04-10T06:09:28;98280.19;;;24.16;29.85
69187;BME280;56301;56.864;60.554;2023-04-10T06:11:50;98272.56;;;24.63;29.12
69187;BME280;56301;56.864;60.554;2023-04-10T06:14:16;98270.28;;;24.88;28.45
69187;BME280;56301;56.864;60.554;2023-04-10T06:16:41;98275.25;;;25.12;27.64
69187;BME280;56301;56.864;60.554;2023-04-10T06:19:04;98283.69;;;25.31;26.49
69187;BME280;56301;56.864;60.554;2023-04-10T06:21:26;98270.25;;;25.44;26.60
69187;BME280;56301;56.864;60.554;2023-04-10T06:23:49;98261.13;;;25.58;27.21
69187;BME280;56301;56.864;60.554;2023-04-10T06:26:14;98273.50;;;25.05;27.91
69187;BME280;56301;56.864;60.554;2023-04-10T06:28:37;98265.72;;;24.24;29.07
69187;BME280;56301;56.864;60.554;2023-04-10T06:31:00;98249.56;;;24.31;29.11
69187;BME280;56301;56.864;60.554;2023-04-10T06:33:27;98257.00;;;23.86;29.07
69187;BME280;56301;56.864;60.554;2023-04-10T06:35:49;98267.34;;;23.67;29.91
69187;BME280;56301;56.864;60.554;2023-04-10T06:38:12;98265.66;;;23.81;29.24
69187;BME280;56301;56.864;60.554;2023-04-10T06:40:35;98247.50;;;24.11;28.86
69187;BME280;56301;56.864;60.554;2023-04-10T06:42:57;98245.25;;;24.58;28.62
69187;BME280;56301;56.864;60.554;2023-04-10T06:45:28;98239.56;;;25.02;28.20
69187;BME280;56301;56.864;60.554;2023-04-10T06:47:51;98242.41;;;25.22;27.47
69187;BME280;56301;56.864;60.554;2023-04-10T06:50:13;98238.97;;;25.35;26.47
69187;BME280;56301;56.864;60.554;2023-04-10T06:52:36;98235.28;;;25.49;27.10
69187;BME280;56301;56.864;60.554;2023-04-10T06:54:58;98235.78;;;24.96;27.10
69187;BME280;56301;56.864;60.554;2023-04-10T06:57:21;98243.41;;;24.37;28.32
69187;BME280;56301;56.864;60.554;2023-04-10T06:59:43;98227.53;;;23.91;29.21
69187;BME280;56301;56.864;60.554;2023-04-10T07:02:06;98236.59;;;23.83;29.34
69187;BME280;56301;56.864;60.554;2023-04-10T07:04:29;98242.19;;;23.82;29.44
69187;BME280;56301;56.864;60.554;2023-04-10T07:06:51;98228.88;;;23.65;29.77
69187;BME280;56301;56.864;60.554;2023-04-10T07:09:14;98230.81;;;23.86;29.29
69187;BME280;56301;56.864;60.554;2023-04-10T07:11:36;98214.28;;;24.17;28.68
69187;BME280;56301;56.864;60.554;2023-04-10T07:13:59;98225.75;;;24.62;28.15
69187;BME280;56301;56.864;60.554;2023-04-10T07:16:22;98214.72;;;24.92;27.56
69187;BME280;56301;56.864;60.554;2023-04-10T07:18:44;98213.78;;;25.06;26.73
69187;BME280;56301;56.864;60.554;2023-04-10T07:21:08;98202.13;;;25.06;28.00
69187;BME280;56301;56.864;60.554;2023-04-10T07:23:31;98214.38;;;25.08;27.93
69187;BME280;56301;56.864;60.554;2023-04-10T07:25:53;98215.69;;;25.12;26.82
69187;BME280;56301;56.864;60.554;2023-04-10T07:28:16;98211.06;;;24.50;27.26
69187;BME280;56301;56.864;60.554;2023-04-10T07:30:38;98203.84;;;24.14;28.61
69187;BME280;56301;56.864;60.554;2023-04-10T07:33:01;98214.91;;;23.62;29.33
69187;BME280;56301;56.864;60.554;2023-04-10T07:35:24;98230.25;;;23.25;29.72
69187;BME280;56301;56.864;60.554;2023-04-10T07:37:46;98222.78;;;23.27;29.74
69187;BME280;56301;56.864;60.554;2023-04-10T07:40:09;98228.56;;;23.39;29.57
69187;BME280;56301;56.864;60.554;2023-04-10T07:42:32;98220.06;;;23.42;29.69
69187;BME280;56301;56.864;60.554;2023-04-10T07:44:55;98233.44;;;23.80;28.84
69187;BME280;56301;56.864;60.554;2023-04-10T07:47:18;98229.91;;;24.22;28.39
69187;BME280;56301;56.864;60.554;2023-04-10T07:49:41;98224.59;;;24.50;27.94
69187;BME280;56301;56.864;60.554;2023-04-10T07:52:04;98230.41;;;24.75;27.93
69187;BME280;56301;56.864;60.554;2023-04-10T07:54:27;98224.72;;;24.91;27.19
69187;BME280;56301;56.864;60.554;2023-04-10T07:56:51;98212.28;;;25.04;27.33
69187;BME280;56301;56.864;60.554;2023-04-10T07:59:13;98207.44;;;25.20;26.78
69187;BME280;56301;56.864;60.554;2023-04-10T08:01:36;98199.97;;;25.29;26.17
69187;BME280;56301;56.864;60.554;2023-04-10T08:03:59;98204.97;;;24.97;26.85
69187;BME280;56301;56.864;60.554;2023-04-10T08:06:21;98214.88;;;24.34;28.12
69187;BME280;56301;56.864;60.554;2023-04-10T08:08:44;98181.78;;;24.32;27.84
69187;BME280;56301;56.864;60.554;2023-04-10T08:11:23;98193.03;;;23.93;28.36
69187;BME280;56301;56.864;60.554;2023-04-10T08:13:45;98204.94;;;23.77;28.71
69187;BME280;56301;56.864;60.554;2023-04-10T08:16:09;98197.69;;;23.99;28.64
69187;BME280;56301;56.864;60.554;2023-04-10T08:18:32;98208.69;;;24.19;28.50
69187;BME280;56301;56.864;60.554;2023-04-10T08:20:54;98197.53;;;24.50;27.50
69187;BME280;56301;56.864;60.554;2023-04-10T08:23:17;98216.09;;;24.81;28.06
69187;BME280;56301;56.864;60.554;2023-04-10T08:25:40;98206.66;;;25.05;27.27
69187;BME280;56301;56.864;60.554;2023-04-10T08:28:03;98209.72;;;25.24;26.83
69187;BME280;56301;56.864;60.554;2023-04-10T08:30:25;98201.97;;;25.14;26.90
69187;BME280;56301;56.864;60.554;2023-04-10T08:32:48;98202.91;;;24.43;28.01
69187;BME280;56301;56.864;60.554;2023-04-10T08:35:11;98215.63;;;24.07;28.52
69187;BME280;56301;56.864;60.554;2023-04-10T08:37:34;98203.75;;;24.22;28.50
69187;BME280;56301;56.864;60.554;2023-04-10T08:39:57;98205.72;;;24.14;28.04
69187;BME280;56301;56.864;60.554;2023-04-10T08:42:19;98202.84;;;24.15;28.61
69187;BME280;56301;56.864;60.554;2023-04-10T08:44:42;98198.91;;;24.39;28.02
69187;BME280;56301;56.864;60.554;2023-04-10T08:47:04;98201.25;;;24.70;27.61
69187;BME280;56301;56.864;60.554;2023-04-10T08:49:36;98211.41;;;24.96;27.66
69187;BME280;56301;56.864;60.554;2023-04-10T08:52:01;98203.84;;;25.13;27.49
69187;BME280;56301;56.864;60.554;2023-04-10T08:54:26;98201.69;;;24.74;27.46
69187;BME280;56301;56.864;60.554;2023-04-10T08:56:50;98213.13;;;24.05;28.38
69187;BME280;56301;56.864;60.554;2023-04-10T08:59:14;98208.78;;;24.04;28.54
69187;BME280;56301;56.864;60.554;2023-04-10T09:01:38;98210.47;;;23.54;29.32
69187;BME280;56301;56.864;60.554;2023-04-10T09:04:01;98214.50;;;23.43;29.64
69187;BME280;56301;56.864;60.554;2023-04-10T09:06:24;98202.03;;;23.42;29.65
69187;BME280;56301;56.864;60.554;2023-04-10T09:08:47;98213.50;;;23.66;29.27
69187;BME280;56301;56.864;60.554;2023-04-10T09:11:10;98221.03;;;24.07;28.79
69187;BME280;56301;56.864;60.554;2023-04-10T09:13:37;98215.19;;;24.46;28.43
69187;BME280;56301;56.864;60.554;2023-04-10T09:15:59;98202.97;;;24.78;28.38
69187;BME280;56301;56.864;60.554;2023-04-10T09:18:22;98217.16;;;24.87;28.97
69187;BME280;56301;56.864;60.554;2023-04-10T09:21:07;98211.50;;;25.10;27.42
69187;BME280;56301;56.864;60.554;2023-04-10T09:23:30;98221.56;;;24.60;27.86
69187;BME280;56301;56.864;60.554;2023-04-10T09:25:53;98228.13;;;24.08;28.70
69187;BME280;56301;56.864;60.554;2023-04-10T09:28:16;98223.84;;;23.77;28.94
69187;BME280;56301;56.864;60.554;2023-04-10T09:30:39;98226.16;;;23.80;29.14
69187;BME280;56301;56.864;60.554;2023-04-10T09:33:10;98227.28;;;23.86;29.42
69187;BME280;56301;56.864;60.554;2023-04-10T09:35:41;98231.28;;;23.90;28.81
69187;BME280;56301;56.864;60.554;2023-04-10T09:38:14;98232.50;;;24.30;28.52
69187;BME280;56301;56.864;60.554;2023-04-10T09:40:37;98230.34;;;24.68;28.08
69187;BME280;56301;56.864;60.554;2023-04-10T09:42:59;98227.59;;;24.90;27.84
69187;BME280;56301;56.864;60.554;2023-04-10T09:45:48;98207.63;;;24.91;27.74
69187;BME280;56301;56.864;60.554;2023-04-10T09:48:10;98220.88;;;24.08;28.43
69187;BME280;56301;56.864;60.554;2023-04-10T09:50:36;98222.81;;;23.78;28.92
69187;BME280;56301;56.864;60.554;2023-04-10T09:52:59;98236.16;;;23.80;28.77
69187;BME280;56301;56.864;60.554;2023-04-10T09:55:22;98245.19;;;23.57;29.32
69187;BME280;56301;56.864;60.554;2023-04-10T09:57:44;98233.56;;;23.42;29.49
69187;BME280;56301;56.864;60.554;2023-04-10T10:00:07;98232.81;;;23.48;28.87
69187;BME280;56301;56.864;60.554;2023-04-10T10:02:30;98237.09;;;23.72;28.48
69187;BME280;56301;56.864;60.554;2023-04-10T10:04:56;98231.28;;;24.11;28.05
69187;BME280;56301;56.864;60.554;2023-04-10T10:07:19;98239.31;;;24.41;27.45
69187;BME280;56301;56.864;60.554;2023-04-10T10:09:42;98249.13;;;24.70;27.31
69187;BME280;56301;56.864;60.554;2023-04-10T10:12:05;98253.44;;;24.92;27.26
69187;BME280;56301;56.864;60.554;2023-04-10T10:14:29;98244.16;;;24.73;26.52
69187;BME280;56301;56.864;60.554;2023-04-10T10:16:54;98230.63;;;24.09;27.68
69187;BME280;56301;56.864;60.554;2023-04-10T10:19:23;98240.25;;;23.75;28.73
69187;BME280;56301;56.864;60.554;2023-04-10T10:21:48;98218.06;;;23.80;28.56
69187;BME280;56301;56.864;60.554;2023-04-10T10:24:11;98247.50;;;23.60;28.82
69187;BME280;56301;56.864;60.554;2023-04-10T10:26:36;98241.38;;;23.51;28.96
69187;BME280;56301;56.864;60.554;2023-04-10T10:29:04;98244.63;;;23.76;28.63
69187;BME280;56301;56.864;60.554;2023-04-10T10:31:26;98247.50;;;24.11;28.13
69187;BME280;56301;56.864;60.554;2023-04-10T10:33:50;98248.94;;;24.50;27.90
69187;BME280;56301;56.864;60.554;2023-04-10T10:36:14;98229.56;;;24.74;27.69
69187;BME280;56301;56.864;60.554;2023-04-10T10:38:37;98250.91;;;24.84;26.83
69187;BME280;56301;56.864;60.554;2023-04-10T10:41:21;98257.59;;;24.24;27.97
69187;BME280;56301;56.864;60.554;2023-04-10T10:46:15;98256.25;;;23.62;28.36
69187;BME280;56301;56.864;60.554;2023-04-10T10:48:38;98269.22;;;23.22;28.90
69187;BME280;56301;56.864;60.554;2023-04-10T10:51:01;98262.63;;;23.10;29.66
69187;BME280;56301;56.864;60.554;2023-04-10T10:55:55;98282.16;;;23.42;29.28
69187;BME280;56301;56.864;60.554;2023-04-10T10:58:17;98282.34;;;23.70;28.40
69187;BME280;56301;56.864;60.554;2023-04-10T11:01:04;98297.03;;;23.97;27.76
69187;BME280;56301;56.864;60.554;2023-04-10T11:03:27;98284.31;;;24.12;27.74
69187;BME280;56301;56.864;60.554;2023-04-10T11:05:54;98281.72;;;24.25;27.83
69187;BME280;56301;56.864;60.554;2023-04-10T11:08:17;98297.19;;;24.32;27.70
69187;BME280;56301;56.864;60.554;2023-04-10T11:13:20;98283.84;;;24.45;27.44
69187;BME280;56301;56.864;60.554;2023-04-10T11:15:43;98296.34;;;24.46;27.13
69187;BME280;56301;56.864;60.554;2023-04-10T11:18:07;98286.78;;;24.50;27.68
69187;BME280;56301;56.864;60.554;2023-04-10T11:20:29;98292.66;;;24.54;28.02
69187;BME280;56301;56.864;60.554;2023-04-10T11:23:12;98290.41;;;24.57;28.02
69187;BME280;56301;56.864;60.554;2023-04-10T11:25:51;98280.84;;;24.61;27.17
69187;BME280;56301;56.864;60.554;2023-04-10T11:28:32;98297.75;;;24.63;26.59
69187;BME280;56301;56.864;60.554;2023-04-10T11:30:55;98281.53;;;24.63;25.71
69187;BME280;56301;56.864;60.554;2023-04-10T11:33:18;98279.44;;;24.65;25.56
69187;BME280;56301;56.864;60.554;2023-04-10T11:35:41;98289.44;;;24.65;26.86
69187;BME280;56301;56.864;60.554;2023-04-10T11:38:10;98302.78;;;24.66;25.53
69187;BME280;56301;56.864;60.554;2023-04-10T11:40:34;98299.03;;;24.67;27.59
69187;BME280;56301;56.864;60.554;2023-04-10T11:43:10;98296.13;;;24.69;27.29
69187;BME280;56301;56.864;60.554;2023-04-10T11:45:33;98293.63;;;24.67;24.62
69187;BME280;56301;56.864;60.554;2023-04-10T11:47:56;98284.47;;;24.68;24.18
69187;BME280;56301;56.864;60.554;2023-04-10T11:50:19;98284.47;;;24.68;24.41
69187;BME280;56301;56.864;60.554;2023-04-10T11:52:42;98290.25;;;24.65;23.74
69187;BME280;56301;56.864;60.554;2023-04-10T11:55:04;98293.03;;;24.72;24.94
69187;BME280;56301;56.864;60.554;2023-04-10T11:57:32;98290.19;;;24.80;25.18
69187;BME280;56301;56.864;60.554;2023-04-10T11:59:55;98286.63;;;24.80;25.44
69187;BME280;56301;56.864;60.554;2023-04-10T12:02:18;98286.63;;;24.80;25.03
69187;BME280;56301;56.864;60.554;2023-04-10T12:04:41;98293.47;;;24.76;24.60
69187;BME280;56301;56.864;60.554;2023-04-10T12:07:04;98297.59;;;24.71;24.48
69187;BME280;56301;56.864;60.554;2023-04-10T12:09:27;98303.84;;;24.72;24.56
69187;BME280;56301;56.864;60.554;2023-04-10T12:11:59;98307.38;;;24.72;25.03
69187;BME280;56301;56.864;60.554;2023-04-10T12:14:22;98310.94;;;24.73;24.74
69187;BME280;56301;56.864;60.554;2023-04-10T12:16:45;98307.38;;;24.72;23.98
69187;BME280;56301;56.864;60.554;2023-04-10T12:19:07;98329.44;;;24.69;24.48
69187;BME280;56301;56.864;60.554;2023-04-10T12:21:31;98322.72;;;24.65;24.28
69187;BME280;56301;56.864;60.554;2023-04-10T12:23:54;98321.06;;;24.64;24.72
69187;BME280;56301;56.864;60.554;2023-04-10T12:26:17;98314.59;;;24.65;23.99
69187;BME280;56301;56.864;60.554;2023-04-10T12:31:34;98323.75;;;24.64;24.23
69187;BME280;56301;56.864;60.554;2023-04-10T12:33:57;98330.66;;;24.67;24.62
69187;BME280;56301;56.864;60.554;2023-04-10T12:36:20;98332.78;;;24.71;26.02
69187;BME280;56301;56.864;60.554;2023-04-10T12:38:44;98329.69;;;24.74;25.64
69187;BME280;56301;56.864;60.554;2023-04-10T12:41:07;98331.81;;;24.79;25.61
69187;BME280;56301;56.864;60.554;2023-04-10T12:43:35;98339.75;;;24.81;26.41
69187;BME280;56301;56.864;60.554;2023-04-10T12:45:58;98334.31;;;24.81;25.80
69187;BME280;56301;56.864;60.554;2023-04-10T12:48:23;98342.44;;;24.81;25.37
69187;BME280;56301;56.864;60.554;2023-04-10T12:50:46;98352.22;;;24.82;25.42
69187;BME280;56301;56.864;60.554;2023-04-10T12:53:09;98350.19;;;24.84;25.72
69187;BME280;56301;56.864;60.554;2023-04-10T12:55:32;98341.41;;;24.82;25.51
69187;BME280;56301;56.864;60.554;2023-04-10T12:57:55;98361.00;;;24.84;26.15
69187;BME280;56301;56.864;60.554;2023-04-10T13:00:18;98367.03;;;24.86;25.41
69187;BME280;56301;56.864;60.554;2023-04-10T13:02:42;98357.88;;;24.87;25.64
69187;BME280;56301;56.864;60.554;2023-04-10T13:05:05;98359.59;;;24.88;25.65
69187;BME280;56301;56.864;60.554;2023-04-10T13:07:28;98361.25;;;24.89;25.94
69187;BME280;56301;56.864;60.554;2023-04-10T13:09:52;98365.00;;;24.88;26.23
69187;BME280;56301;56.864;60.554;2023-04-10T13:12:15;98361.25;;;24.89;26.47